createdAt,value
2018-02-05T00:00:45.429Z,98800.97
2018-02-05T00:03:12.884Z,98793.34
2018-02-05T00:05:40.359Z,98795.59
2018-02-05T00:08:08.136Z,98797.61
2018-02-05T00:10:35.604Z,98800.16
2018-02-05T00:13:03.070Z,98803.65
2018-02-05T00:15:30.812Z,98798.44
2018-02-05T00:17:58.265Z,98803.22
2018-02-05T00:20:26.360Z,98799.39
2018-02-05T00:22:54.150Z,98802.39
2018-02-05T00:25:21.608Z,98806.95
2018-02-05T00:27:49.068Z,98805.70
2018-02-05T00:30:17.084Z,98807.05
2018-02-05T00:32:44.552Z,98803.06
2018-02-05T00:35:12.023Z,98811.25
2018-02-05T00:37:39.769Z,98816.12
2018-02-05T00:40:07.235Z,98810.20
2018-02-05T00:42:34.702Z,98816.76
2018-02-05T00:45:02.481Z,98824.08
2018-02-05T00:47:29.949Z,98832.63
2018-02-05T00:49:57.421Z,98830.80
2018-02-05T00:52:25.463Z,98822.94
2018-02-05T00:54:52.933Z,98823.77
2018-02-05T00:57:20.441Z,98827.73
2018-02-05T00:59:48.154Z,98824.83
2018-02-05T01:02:15.985Z,98823.97
2018-02-05T01:04:43.452Z,98823.14
2018-02-05T01:07:11.388Z,98817.98
2018-02-05T01:09:38.868Z,98824.16
2018-02-05T01:12:06.336Z,98818.05
2018-02-05T01:14:34.133Z,98826.17
2018-02-05T01:17:01.600Z,98823.14
2018-02-05T01:19:29.066Z,98820.13
2018-02-05T01:21:57.109Z,98820.22
2018-02-05T01:24:24.582Z,98821.07
2018-02-05T01:26:52.057Z,98814.06
2018-02-05T01:29:19.820Z,98817.07
2018-02-05T01:31:47.283Z,98821.36
2018-02-05T01:34:14.752Z,98824.10
2018-02-05T01:36:42.500Z,98820.22
2018-02-05T01:39:09.972Z,98815.47
2018-02-05T01:41:37.428Z,98818.58
2018-02-05T01:44:05.110Z,98818.95
2018-02-05T01:46:32.601Z,98825.37
2018-02-05T01:49:00.058Z,98818.90
2018-02-05T01:51:27.868Z,98818.90
2018-02-05T01:53:55.317Z,98809.34
2018-02-05T01:56:22.790Z,98815.30
2018-02-05T01:58:50.606Z,98816.06
2018-02-05T02:01:18.049Z,98819.56
2018-02-05T02:03:45.520Z,98815.41
2018-02-05T02:06:13.241Z,98819.38
2018-02-05T02:08:40.715Z,98818.55
2018-02-05T02:11:08.175Z,98814.50
2018-02-05T02:13:35.940Z,98817.21
2018-02-05T02:16:03.420Z,98811.66
2018-02-05T02:18:30.880Z,98812.50
2018-02-05T02:20:58.934Z,98810.29
2018-02-05T02:23:27.398Z,98822.77
2018-02-05T02:25:54.870Z,98819.73
2018-02-05T02:28:22.836Z,98811.74
2018-02-05T02:30:50.292Z,98818.79
2018-02-05T02:33:17.767Z,98818.09
2018-02-05T02:35:45.509Z,98817.16
2018-02-05T02:38:12.973Z,98814.61
2018-02-05T02:40:40.433Z,98820.70
2018-02-05T02:43:08.165Z,98817.27
2018-02-05T02:45:35.625Z,98821.66
2018-02-05T02:48:03.097Z,98820.80
2018-02-05T02:50:31.013Z,98833.48
2018-02-05T02:52:58.484Z,98825.84
2018-02-05T02:55:25.943Z,98832.36
2018-02-05T02:57:53.908Z,98835.79
2018-02-05T03:00:21.377Z,98837.86
2018-02-05T03:02:48.847Z,98834.09
2018-02-05T03:05:16.596Z,98833.70
2018-02-05T03:07:44.072Z,98834.98
2018-02-05T03:10:11.555Z,98834.13
2018-02-05T03:12:39.589Z,98840.17
2018-02-05T03:15:07.052Z,98843.98
2018-02-05T03:17:34.572Z,98847.53
2018-02-05T03:20:02.264Z,98849.66
2018-02-05T03:22:29.733Z,98861.25
2018-02-05T03:24:57.878Z,98862.97
2018-02-05T03:27:25.788Z,98867.34
2018-02-05T03:29:53.275Z,98865.14
2018-02-05T03:32:20.742Z,98875.41
2018-02-05T03:34:48.568Z,98885.55
2018-02-05T03:37:16.052Z,98885.91
2018-02-05T03:39:43.517Z,98888.13
2018-02-05T03:42:11.864Z,98893.31
2018-02-05T03:44:39.334Z,98897.59
2018-02-05T03:47:06.855Z,98900.23
2018-02-05T03:49:34.561Z,98890.31
2018-02-05T03:52:02.028Z,98898.90
2018-02-05T03:54:29.494Z,98893.30
2018-02-05T03:56:57.548Z,98891.27
2018-02-05T03:59:25.020Z,98898.17
2018-02-05T04:01:52.484Z,98897.25
2018-02-05T04:04:20.252Z,98899.05
2018-02-05T04:06:53.200Z,98908.88
2018-02-05T04:09:20.677Z,98909.83
2018-02-05T04:11:48.447Z,98911.11
2018-02-05T04:14:15.925Z,98918.38
2018-02-05T04:16:43.392Z,98914.11
2018-02-05T04:19:11.132Z,98916.64
2018-02-05T04:21:38.594Z,98914.59
2018-02-05T04:24:06.060Z,98922.33
2018-02-05T04:26:35.996Z,98921.38
2018-02-05T04:29:03.462Z,98919.30
2018-02-05T04:31:30.929Z,98930.23
2018-02-05T04:33:58.961Z,98930.66
2018-02-05T04:36:26.510Z,98928.03
2018-02-05T04:38:53.977Z,98914.93
2018-02-05T04:41:21.956Z,98922.92
2018-02-05T04:43:49.428Z,98923.95
2018-02-05T04:46:16.907Z,98923.94
2018-02-05T04:48:44.657Z,98927.02
2018-02-05T04:51:12.129Z,98931.34
2018-02-05T04:53:39.601Z,98932.28
2018-02-05T04:56:07.385Z,98931.88
2018-02-05T04:58:34.851Z,98934.86
2018-02-05T05:01:02.320Z,98928.52
2018-02-05T05:03:30.052Z,98928.94
2018-02-05T05:05:57.519Z,98921.97
2018-02-05T05:08:24.994Z,98930.95
2018-02-05T05:10:53.021Z,98921.99
2018-02-05T05:13:20.492Z,98921.55
2018-02-05T05:15:47.957Z,98928.44
2018-02-05T05:18:16.009Z,98926.77
2018-02-05T05:20:43.477Z,98925.45
2018-02-05T05:23:10.948Z,98934.01
2018-02-05T05:25:38.698Z,98931.44
2018-02-05T05:28:06.866Z,98935.28
2018-02-05T05:30:34.337Z,98930.55
2018-02-05T05:33:02.070Z,98934.86
2018-02-05T05:35:29.549Z,98935.67
2018-02-05T05:37:57.025Z,98935.28
2018-02-05T05:40:24.713Z,98935.72
2018-02-05T05:42:52.184Z,98935.30
2018-02-05T05:45:19.660Z,98935.72
2018-02-05T05:47:47.343Z,98934.84
2018-02-05T05:50:14.809Z,98940.85
2018-02-05T05:52:42.273Z,98941.24
2018-02-05T05:55:10.383Z,98935.72
2018-02-05T05:57:37.860Z,98941.47
2018-02-05T06:00:05.324Z,98943.91
2018-02-05T06:02:33.363Z,98943.47
2018-02-05T06:05:00.832Z,98946.78
2018-02-05T06:07:28.316Z,98946.33
2018-02-05T06:09:56.052Z,98946.75
2018-02-05T06:12:23.521Z,98947.97
2018-02-05T06:14:50.992Z,98947.97
2018-02-05T06:17:18.796Z,98952.14
2018-02-05T06:19:46.277Z,98949.50
2018-02-05T06:22:13.745Z,98948.48
2018-02-05T06:24:41.674Z,98949.48
2018-02-05T06:27:09.136Z,98943.90
2018-02-05T06:29:37.044Z,98946.34
2018-02-05T06:32:04.726Z,98945.14
2018-02-05T06:34:32.196Z,98951.44
2018-02-05T06:36:59.722Z,98956.16
2018-02-05T06:39:27.653Z,98960.94
2018-02-05T06:41:55.105Z,98964.56
2018-02-05T06:44:22.568Z,98967.05
2018-02-05T06:46:50.409Z,98972.97
2018-02-05T06:49:17.877Z,98966.03
2018-02-05T06:51:57.529Z,98965.55
2018-02-05T06:54:36.720Z,98965.94
2018-02-05T06:57:04.512Z,98969.25
2018-02-05T06:59:31.956Z,98973.12
2018-02-05T07:01:59.404Z,98971.66
2018-02-05T07:04:27.204Z,98970.83
2018-02-05T07:06:54.660Z,98977.39
2018-02-05T07:09:22.125Z,98977.11
2018-02-05T07:11:50.204Z,98975.28
2018-02-05T07:14:17.653Z,98981.34
2018-02-05T07:16:45.133Z,98976.53
2018-02-05T07:19:12.896Z,98969.92
2018-02-05T07:21:40.349Z,98975.91
2018-02-05T07:24:07.801Z,98975.44
2018-02-05T07:26:35.597Z,98975.28
2018-02-05T07:29:03.048Z,98968.86
2018-02-05T07:31:33.087Z,98980.56
2018-02-05T07:34:01.020Z,98980.45
2018-02-05T07:36:28.472Z,98978.13
2018-02-05T07:38:55.920Z,98980.54
2018-02-05T07:41:24.008Z,98980.98
2018-02-05T07:43:51.458Z,98980.37
2018-02-05T07:46:18.917Z,98984.89
2018-02-05T07:48:46.701Z,98981.19
2018-02-05T07:51:14.147Z,98985.02
2018-02-05T07:53:41.602Z,98986.83
2018-02-05T07:56:09.389Z,98984.98
2018-02-05T07:58:36.841Z,98989.24
2018-02-05T08:01:04.286Z,98994.92
2018-02-05T08:03:32.071Z,98992.97
2018-02-05T08:05:59.519Z,98998.06
2018-02-05T08:08:26.972Z,98996.00
2018-02-05T08:10:54.772Z,99002.05
2018-02-05T08:13:22.236Z,99007.49
2018-02-05T08:15:49.707Z,99010.21
2018-02-05T08:18:17.459Z,99006.44
2018-02-05T08:20:44.915Z,99006.80
2018-02-05T08:23:13.245Z,99015.97
2018-02-05T08:25:41.066Z,99016.35
2018-02-05T08:28:08.522Z,99013.81
2018-02-05T08:30:35.989Z,99013.62
2018-02-05T08:33:04.128Z,99016.88
2018-02-05T08:35:31.589Z,99017.73
2018-02-05T08:37:59.052Z,99022.05
2018-02-05T08:40:26.736Z,99014.39
2018-02-05T08:42:54.199Z,99012.23
2018-02-05T08:45:21.673Z,99018.94
2018-02-05T08:47:49.433Z,99018.02
2018-02-05T08:50:16.902Z,99012.19
2018-02-05T08:52:44.362Z,99011.65
2018-02-05T08:55:12.105Z,99006.91
2018-02-05T08:57:39.949Z,99007.05
2018-02-05T09:00:07.408Z,99004.30
2018-02-05T09:02:35.120Z,98998.21
2018-02-05T09:05:03.104Z,98995.45
2018-02-05T09:07:30.555Z,98987.92
2018-02-05T09:09:58.272Z,98991.09
2018-02-05T09:12:25.734Z,98994.44
2018-02-05T09:14:53.217Z,98987.75
2018-02-05T09:17:21.102Z,98987.86
2018-02-05T09:19:48.554Z,98989.60
2018-02-05T09:22:16.030Z,98985.43
2018-02-05T09:24:44.089Z,98988.75
2018-02-05T09:27:11.535Z,98990.75
2018-02-05T09:29:38.980Z,98984.08
2018-02-05T09:32:08.004Z,98987.78
2018-02-05T09:34:36.177Z,98971.00
2018-02-05T09:37:03.629Z,98979.81
2018-02-05T09:39:31.615Z,98980.63
2018-02-05T09:41:59.060Z,98975.36
2018-02-05T09:44:26.512Z,98981.83
2018-02-05T09:46:54.297Z,98985.61
2018-02-05T09:49:21.762Z,98981.22
2018-02-05T09:51:49.224Z,98984.95
2018-02-05T09:54:16.992Z,98978.16
2018-02-05T09:56:44.456Z,98982.05
2018-02-05T09:59:11.915Z,98978.45
2018-02-05T10:01:39.688Z,98982.25
2018-02-05T10:04:07.140Z,98984.20
2018-02-05T10:06:34.593Z,98980.72
2018-02-05T10:09:02.367Z,98979.66
2018-02-05T10:11:29.821Z,98980.17
2018-02-05T10:13:57.273Z,98982.49
2018-02-05T10:16:25.056Z,98980.50
2018-02-05T10:18:52.540Z,98980.92
2018-02-05T10:21:19.982Z,98977.73
2018-02-05T10:23:47.734Z,98981.81
2018-02-05T10:26:15.181Z,98978.59
2018-02-05T10:28:42.633Z,98977.03
2018-02-05T10:31:10.436Z,98976.02
2018-02-05T10:33:37.889Z,98975.49
2018-02-05T10:36:06.037Z,98967.20
2018-02-05T10:38:33.990Z,98974.47
2018-02-05T10:41:01.438Z,98969.88
2018-02-05T10:43:28.895Z,98961.14
2018-02-05T10:45:56.720Z,98958.13
2018-02-05T10:48:24.177Z,98946.56
2018-02-05T10:50:51.624Z,98950.95
2018-02-05T10:53:19.413Z,98947.02
2018-02-05T10:55:46.869Z,98942.80
2018-02-05T10:58:14.316Z,98944.64
2018-02-05T11:00:42.085Z,98938.74
2018-02-05T11:03:09.531Z,98939.31
2018-02-05T11:05:36.980Z,98935.16
2018-02-05T11:08:04.782Z,98928.64
2018-02-05T11:10:32.235Z,98928.47
2018-02-05T11:12:59.688Z,98919.11
2018-02-05T11:15:27.466Z,98905.97
2018-02-05T11:17:54.926Z,98912.03
2018-02-05T11:20:22.385Z,98912.44
2018-02-05T11:22:50.155Z,98905.11
2018-02-05T11:25:17.612Z,98911.16
2018-02-05T11:27:45.065Z,98909.58
2018-02-05T11:30:12.837Z,98911.73
2018-02-05T11:32:40.300Z,98902.21
2018-02-05T11:35:07.745Z,98893.97
2018-02-05T11:37:35.520Z,98892.48
2018-02-05T11:40:02.972Z,98892.59
2018-02-05T11:42:30.422Z,98892.88
2018-02-05T11:44:58.177Z,98888.58
2018-02-05T11:47:25.626Z,98881.29
2018-02-05T11:49:53.094Z,98872.80
2018-02-05T11:52:20.830Z,98872.61
2018-02-05T11:54:48.293Z,98868.49
2018-02-05T11:57:15.789Z,98866.44
2018-02-05T11:59:43.921Z,98857.61
2018-02-05T12:02:11.376Z,98860.98
2018-02-05T12:04:38.821Z,98867.09
2018-02-05T12:07:06.895Z,98859.23
2018-02-05T12:09:34.349Z,98871.86
2018-02-05T12:12:01.800Z,98864.45
2018-02-05T12:14:29.892Z,98865.04
2018-02-05T12:16:57.356Z,98857.36
2018-02-05T12:19:24.814Z,98858.42
2018-02-05T12:21:52.551Z,98858.05
2018-02-05T12:24:20.025Z,98860.09
2018-02-05T12:26:47.469Z,98865.32
2018-02-05T12:29:15.573Z,98859.50
2018-02-05T12:31:43.029Z,98863.25
2018-02-05T12:34:10.476Z,98853.50
2018-02-05T12:36:39.791Z,98847.08
2018-02-05T12:39:08.232Z,98859.02
2018-02-05T12:41:35.689Z,98854.98
2018-02-05T12:44:03.392Z,98851.78
2018-02-05T12:46:30.832Z,98848.98
2018-02-05T12:48:58.284Z,98845.41
2018-02-05T12:51:26.131Z,98851.60
2018-02-05T12:53:53.578Z,98846.48
2018-02-05T12:56:21.025Z,98846.23
2018-02-05T12:58:48.770Z,98842.58
2018-02-05T13:01:21.776Z,98847.84
2018-02-05T13:06:53.695Z,98846.22
2018-02-05T13:09:21.463Z,98845.89
2018-02-05T13:11:48.906Z,98849.30
2018-02-05T13:14:16.344Z,98845.91
2018-02-05T13:16:44.355Z,98846.92
2018-02-05T13:19:11.817Z,98845.84
2018-02-05T13:21:39.286Z,98845.09
2018-02-05T13:24:07.061Z,98837.39
2018-02-05T13:26:34.805Z,98835.37
2018-02-05T13:29:02.244Z,98836.05
2018-02-05T13:31:29.988Z,98837.90
2018-02-05T13:33:57.441Z,98839.06
2018-02-05T13:36:24.907Z,98835.69
2018-02-05T13:38:52.730Z,98832.59
2018-02-05T13:41:20.827Z,98835.25
2018-02-05T13:43:48.269Z,98829.67
2018-02-05T13:46:16.327Z,98821.84
2018-02-05T13:48:44.058Z,98824.05
2018-02-05T13:51:11.513Z,98822.27
2018-02-05T13:53:39.271Z,98828.48
2018-02-05T13:56:06.721Z,98819.13
2018-02-05T13:58:34.181Z,98819.47
2018-02-05T14:01:01.967Z,98820.05
2018-02-05T14:03:29.433Z,98815.78
2018-02-05T14:05:56.883Z,98813.16
2018-02-05T14:08:24.656Z,98804.38
2018-02-05T14:10:52.103Z,98810.53
2018-02-05T14:13:19.545Z,98814.69
2018-02-05T14:15:47.368Z,98807.37
2018-02-05T14:18:14.820Z,98810.17
2018-02-05T14:20:42.269Z,98808.55
2018-02-05T14:23:10.025Z,98802.38
2018-02-05T14:25:37.520Z,98796.56
2018-02-05T14:28:04.936Z,98799.09
2018-02-05T14:30:32.901Z,98794.42
2018-02-05T14:33:00.373Z,98793.88
2018-02-05T14:35:27.818Z,98795.68
2018-02-05T14:37:55.708Z,98798.17
2018-02-05T14:40:23.157Z,98792.17
2018-02-05T14:42:51.313Z,98801.06
2018-02-05T14:45:19.316Z,98797.84
2018-02-05T14:47:46.780Z,98806.95
2018-02-05T14:50:14.235Z,98799.05
2018-02-05T14:52:42.011Z,98794.48
2018-02-05T14:55:09.468Z,98791.38
2018-02-05T14:57:37.949Z,98791.82
2018-02-05T15:00:05.920Z,98790.45
2018-02-05T15:02:33.380Z,98786.16
2018-02-05T15:05:00.878Z,98785.86
2018-02-05T15:07:28.610Z,98794.66
2018-02-05T15:09:56.061Z,98785.34
2018-02-05T15:12:23.554Z,98778.98
2018-02-05T15:14:51.296Z,98779.68
2018-02-05T15:17:18.745Z,98776.34
2018-02-05T15:19:46.197Z,98779.03
2018-02-05T15:22:13.990Z,98778.67
2018-02-05T15:24:41.561Z,98773.50
2018-02-05T15:27:09.010Z,98776.57
2018-02-05T15:29:36.969Z,98781.66
2018-02-05T15:32:04.408Z,98774.08
2018-02-05T15:34:31.857Z,98773.33
2018-02-05T15:36:59.684Z,98771.36
2018-02-05T15:39:27.199Z,98773.67
2018-02-05T15:41:54.660Z,98776.61
2018-02-05T15:44:22.954Z,98776.63
2018-02-05T15:46:50.401Z,98777.23
2018-02-05T15:49:17.846Z,98777.30
2018-02-05T15:51:45.656Z,98771.77
2018-02-05T15:54:13.119Z,98773.65
2018-02-05T15:56:40.575Z,98773.65
2018-02-05T15:59:08.335Z,98776.28
2018-02-05T16:01:35.781Z,98774.60
2018-02-05T16:04:03.237Z,98778.33
2018-02-05T16:06:31.029Z,98775.92
2018-02-05T16:08:58.486Z,98776.57
2018-02-05T16:11:25.944Z,98779.80
2018-02-05T16:13:53.785Z,98777.52
2018-02-05T16:16:21.228Z,98784.49
2018-02-05T16:18:48.684Z,98782.03
2018-02-05T16:21:16.407Z,98780.52
2018-02-05T16:23:43.860Z,98788.72
2018-02-05T16:26:11.324Z,98778.92
2018-02-05T16:28:39.094Z,98782.83
2018-02-05T16:31:06.559Z,98783.17
2018-02-05T16:33:34.012Z,98782.88
2018-02-05T16:36:02.069Z,98788.73
2018-02-05T16:38:29.519Z,98796.63
2018-02-05T16:40:56.981Z,98790.19
2018-02-05T16:43:24.759Z,98792.38
2018-02-05T16:45:53.546Z,98796.28
2018-02-05T16:48:21.001Z,98797.66
2018-02-05T16:50:49.037Z,98800.15
2018-02-05T16:53:16.492Z,98799.45
2018-02-05T16:55:43.934Z,98800.82
2018-02-05T16:58:11.670Z,98797.14
2018-02-05T17:00:39.127Z,98797.48
2018-02-05T17:03:06.701Z,98790.41
2018-02-05T17:05:34.444Z,98796.59
2018-02-05T17:08:01.901Z,98793.06
2018-02-05T17:10:29.353Z,98791.72
2018-02-05T17:12:57.048Z,98788.01
2018-02-05T17:15:24.504Z,98782.48
2018-02-05T17:17:51.945Z,98790.41
2018-02-05T17:20:19.744Z,98788.46
2018-02-05T17:22:47.188Z,98783.93
2018-02-05T17:25:14.636Z,98788.28
2018-02-05T17:27:42.430Z,98793.87
2018-02-05T17:30:09.880Z,98793.87
2018-02-05T17:32:37.340Z,98797.04
2018-02-05T17:35:04.973Z,98790.39
2018-02-05T17:37:32.422Z,98796.51
2018-02-05T17:39:59.890Z,98792.70
2018-02-05T17:42:27.816Z,98787.62
2018-02-05T17:44:55.281Z,98791.95
2018-02-05T17:47:23.416Z,98791.69
2018-02-05T17:49:51.181Z,98795.39
2018-02-05T17:52:18.685Z,98791.11
2018-02-05T17:54:46.144Z,98791.53
2018-02-05T17:57:14.097Z,98790.23
2018-02-05T17:59:41.545Z,98791.69
2018-02-05T18:02:08.996Z,98790.78
2018-02-05T18:04:36.769Z,98785.56
2018-02-05T18:07:04.289Z,98790.81
2018-02-05T18:09:31.736Z,98785.12
2018-02-05T18:11:59.779Z,98786.31
2018-02-05T18:14:27.501Z,98786.45
2018-02-05T18:16:54.980Z,98784.20
2018-02-05T18:19:23.068Z,98780.05
2018-02-05T18:21:50.757Z,98775.73
2018-02-05T18:24:18.204Z,98771.48
2018-02-05T18:26:45.980Z,98775.32
2018-02-05T18:29:13.436Z,98781.27
2018-02-05T18:31:40.897Z,98771.34
2018-02-05T18:34:09.064Z,98777.31
2018-02-05T18:36:36.712Z,98775.32
2018-02-05T18:39:04.200Z,98775.16
2018-02-05T18:41:32.717Z,98777.17
2018-02-05T18:44:00.168Z,98775.19
2018-02-05T18:46:28.116Z,98777.75
2018-02-05T18:48:58.752Z,98773.95
2018-02-05T18:51:26.212Z,98775.61
2018-02-05T18:53:53.745Z,98781.72
2018-02-05T18:56:33.282Z,98764.31
2018-02-05T18:59:01.105Z,98774.82
2018-02-05T19:01:28.567Z,98772.30
2018-02-05T19:03:56.709Z,98769.20
2018-02-05T19:06:24.152Z,98773.37
2018-02-05T19:08:51.609Z,98771.80
2018-02-05T19:11:19.280Z,98773.86
2018-02-05T19:13:46.730Z,98772.37
2018-02-05T19:16:14.184Z,98773.45
2018-02-05T19:18:42.092Z,98777.55
2018-02-05T19:21:09.557Z,98775.19
2018-02-05T19:23:37.017Z,98768.70
2018-02-05T19:26:04.983Z,98768.70
2018-02-05T19:28:32.545Z,98769.11
2018-02-05T19:30:59.991Z,98768.63
2018-02-05T19:33:27.783Z,98768.16
2018-02-05T19:35:55.335Z,98769.13
2018-02-05T19:38:22.848Z,98762.92
2018-02-05T19:40:50.458Z,98768.70
2018-02-05T19:43:17.918Z,98762.34
2018-02-05T19:45:45.385Z,98758.56
2018-02-05T19:48:13.442Z,98757.91
2018-02-05T19:50:41.291Z,98761.92
2018-02-05T19:53:09.595Z,98761.00
2018-02-05T19:55:38.454Z,98763.23
2018-02-05T19:58:06.056Z,98754.16
2018-02-05T20:00:33.563Z,98759.82
2018-02-05T20:03:01.590Z,98752.80
2018-02-05T20:05:29.511Z,98750.41
2018-02-05T20:07:57.696Z,98749.98
2018-02-05T20:10:25.502Z,98742.14
2018-02-05T20:12:53.267Z,98749.92
2018-02-05T20:15:20.724Z,98743.02
2018-02-05T20:17:49.141Z,98743.78
2018-02-05T20:20:17.322Z,98742.57
2018-02-05T20:22:44.826Z,98737.80
2018-02-05T20:25:12.461Z,98736.00
2018-02-05T20:27:39.904Z,98735.67
2018-02-05T20:30:08.409Z,98733.64
2018-02-05T20:32:37.705Z,98734.81
2018-02-05T20:35:05.231Z,98731.48
2018-02-05T20:37:32.688Z,98728.61
2018-02-05T20:40:00.567Z,98724.31
2018-02-05T20:42:28.689Z,98726.31
2018-02-05T20:44:57.058Z,98726.50
2018-02-05T20:47:24.780Z,98718.23
2018-02-05T20:49:52.247Z,98719.09
2018-02-05T20:52:20.843Z,98723.98
2018-02-05T20:54:49.468Z,98724.12
2018-02-05T20:57:17.940Z,98726.45
2018-02-05T20:59:45.395Z,98720.87
2018-02-05T21:02:13.840Z,98715.78
2018-02-05T21:04:41.293Z,98710.53
2018-02-05T21:07:09.232Z,98705.45
2018-02-05T21:09:38.321Z,98707.81
2018-02-05T21:12:05.865Z,98700.73
2018-02-05T21:14:33.964Z,98702.78
2018-02-05T21:17:01.980Z,98699.80
2018-02-05T21:19:29.657Z,98699.73
2018-02-05T21:21:58.346Z,98695.78
2018-02-05T21:24:26.865Z,98697.80
2018-02-05T21:26:54.596Z,98693.27
2018-02-05T21:29:22.045Z,98692.79
2018-02-05T21:31:49.816Z,98693.75
2018-02-05T21:34:17.272Z,98691.89
2018-02-05T21:36:44.733Z,98686.89
2018-02-05T21:39:12.493Z,98681.56
2018-02-05T21:41:39.941Z,98679.41
2018-02-05T21:44:07.401Z,98679.97
2018-02-05T21:46:35.036Z,98672.00
2018-02-05T21:49:02.511Z,98675.23
2018-02-05T21:51:29.958Z,98669.20
2018-02-05T21:53:59.716Z,98676.38
2018-02-05T21:56:27.163Z,98670.58
2018-02-05T21:58:54.612Z,98669.85
2018-02-05T22:01:22.411Z,98673.38
2018-02-05T22:03:49.868Z,98669.43
2018-02-05T22:06:17.319Z,98665.97
2018-02-05T22:08:45.033Z,98670.48
2018-02-05T22:11:13.509Z,98667.11
2018-02-05T22:13:40.997Z,98667.63
2018-02-05T22:16:08.697Z,98667.54
2018-02-05T22:18:36.156Z,98663.33
2018-02-05T22:21:03.616Z,98666.27
2018-02-05T22:23:31.384Z,98665.54
2018-02-05T22:25:58.854Z,98659.43
2018-02-05T22:28:26.312Z,98657.65
2018-02-05T22:30:54.065Z,98663.45
2018-02-05T22:33:21.531Z,98666.77
2018-02-05T22:35:48.997Z,98660.86
2018-02-05T22:38:16.669Z,98660.20
2018-02-05T22:40:44.162Z,98653.33
2018-02-05T22:43:11.617Z,98656.78
2018-02-05T22:45:39.437Z,98654.55
2018-02-05T22:48:06.886Z,98648.03
2018-02-05T22:50:34.361Z,98646.27
2018-02-05T22:53:02.314Z,98643.37
2018-02-05T22:55:30.281Z,98643.13
2018-02-05T22:57:57.729Z,98643.25
2018-02-05T23:00:25.433Z,98641.66
2018-02-05T23:02:52.881Z,98639.26
2018-02-05T23:05:20.329Z,98629.17
2018-02-05T23:07:48.045Z,98627.76
2018-02-05T23:10:15.498Z,98619.58
2018-02-05T23:12:42.944Z,98606.66
2018-02-05T23:15:10.897Z,98606.20
2018-02-05T23:17:38.360Z,98601.80
2018-02-05T23:20:05.903Z,98593.44
2018-02-05T23:22:33.581Z,98590.72
2018-02-05T23:25:01.033Z,98586.17
2018-02-05T23:27:28.486Z,98577.92
2018-02-05T23:29:56.179Z,98575.72
2018-02-05T23:32:23.628Z,98581.06
2018-02-05T23:34:51.079Z,98586.43
2018-02-05T23:37:19.189Z,98580.15
2018-02-05T23:39:46.645Z,98574.25
2018-02-05T23:42:14.108Z,98569.55
2018-02-05T23:44:41.859Z,98577.38
2018-02-05T23:47:09.311Z,98578.17
2018-02-05T23:49:36.768Z,98568.22
2018-02-05T23:52:04.541Z,98572.58
2018-02-05T23:54:33.949Z,98570.00
2018-02-05T23:57:02.912Z,98573.94
2018-02-05T23:59:30.618Z,98559.72
